Time;durP1;ratioP1;P1;durP2;ratioP2;P2;SDS_P1;SDS_P2;PMS_P1;PMS_P2;Temp;Humidity;BMP_temperature;BMP_pressure;BME280_temperature;BME280_humidity;BME280_pressure;Samples;Min_cycle;Max_cycle;Signal;HPM_P1;HPM_P2
2023/06/22 00:00:31;;;;;;;12.60;11.30;;;;;;;20.74;59.68;100439.54;105665;1254;60684;-82
2023/06/22 00:02:59;;;;;;;13.10;11.80;;;;;;;20.74;59.48;100446.17;105715;1257;60411;-82
2023/06/22 00:05:27;;;;;;;14.00;12.30;;;;;;;20.72;59.31;100445.70;105572;1259;63706;-82
2023/06/22 00:07:54;;;;;;;13.80;12.40;;;;;;;20.66;59.43;100438.23;105639;1254;66676;-82
2023/06/22 00:10:22;;;;;;;13.90;12.20;;;;;;;20.57;59.78;100440.88;105676;1255;62404;-82
2023/06/22 00:12:49;;;;;;;13.20;11.80;;;;;;;20.54;59.99;100438.67;105711;1257;60526;-82
2023/06/22 00:15:17;;;;;;;13.00;11.00;;;;;;;20.54;59.93;100438.92;105785;1252;60613;-81
2023/06/22 00:17:45;;;;;;;12.30;11.00;;;;;;;20.54;59.83;100436.95;105684;1254;64358;-84
2023/06/22 00:20:14;;;;;;;12.70;11.40;;;;;;;20.49;59.72;100442.20;105777;1257;60488;-83
2023/06/22 00:22:42;;;;;;;14.40;12.90;;;;;;;20.46;59.97;100445.29;105672;1260;63717;-83
2023/06/22 00:25:10;;;;;;;13.50;12.30;;;;;;;20.49;60.26;100449.89;105763;1252;60558;-82
2023/06/22 00:27:37;;;;;;;13.60;12.20;;;;;;;20.51;60.45;100451.40;105786;1254;60507;-82
2023/06/22 00:30:07;;;;;;;13.30;11.20;;;;;;;20.52;60.47;100453.31;105773;1253;63723;-83
2023/06/22 00:32:35;;;;;;;13.00;11.10;;;;;;;20.49;60.27;100457.87;105720;1254;60463;-83
2023/06/22 00:35:19;;;;;;;12.30;11.10;;;;;;;20.49;60.43;100457.64;102708;1295;600041;-82
2023/06/22 00:37:47;;;;;;;12.70;10.60;;;;;;;20.44;60.19;100460.16;104870;1271;59941;-81
2023/06/22 00:40:14;;;;;;;12.70;11.40;;;;;;;20.42;60.13;100461.48;104804;1269;59214;-82
2023/06/22 00:42:42;;;;;;;15.40;13.90;;;;;;;20.38;60.22;100470.16;105103;1266;62073;-84
2023/06/22 00:45:09;;;;;;;15.20;13.70;;;;;;;20.38;60.86;100466.65;104802;1269;59225;-82
2023/06/22 00:47:37;;;;;;;14.40;12.60;;;;;;;20.43;61.16;100468.98;105378;1264;62640;-82
2023/06/22 00:50:07;;;;;;;13.40;12.10;;;;;;;20.48;60.95;100474.69;105289;1259;211485;-81
2023/06/22 00:52:35;;;;;;;13.20;11.90;;;;;;;20.47;60.80;100475.95;105228;1265;59316;-83
2023/06/22 00:55:02;;;;;;;15.50;12.10;;;;;;;20.47;60.72;100478.23;105626;1259;62109;-82
2023/06/22 00:57:30;;;;;;;13.60;12.10;;;;;;;20.49;60.62;100479.45;105606;1259;59241;-83
2023/06/22 00:59:57;;;;;;;12.90;11.10;;;;;;;20.48;60.58;100480.80;105453;1259;62473;-82
2023/06/22 01:02:25;;;;;;;13.00;11.30;;;;;;;20.46;60.47;100479.06;105319;1260;59638;-82
2023/06/22 01:04:55;;;;;;;13.10;11.80;;;;;;;20.42;60.33;100479.11;105431;1256;59564;-82
2023/06/22 01:07:35;;;;;;;12.50;11.10;;;;;;;20.37;60.25;100475.30;105488;1262;64255;-82
2023/06/22 01:10:11;;;;;;;13.10;11.70;;;;;;;20.31;60.31;100474.02;105809;1254;59553;-82
2023/06/22 01:12:43;;;;;;;13.90;12.20;;;;;;;20.27;60.55;100479.56;105668;1254;63731;-82
2023/06/22 01:23:18;;;;;;;14.30;12.60;;;;;;;20.33;61.04;100486.10;102768;1292;599978;-82
2023/06/22 01:26:06;;;;;;;14.80;12.20;;;;;;;20.34;60.91;100489.45;104837;1267;59265;-81
2023/06/22 01:28:37;;;;;;;14.60;12.20;;;;;;;20.33;60.82;100489.89;104949;1268;59188;-82
2023/06/22 01:31:05;;;;;;;15.20;12.00;;;;;;;20.32;60.74;100492.55;104825;1266;62118;-82
2023/06/22 01:33:34;;;;;;;13.50;12.10;;;;;;;20.29;60.52;100499.45;105130;1260;59285;-81
2023/06/22 01:36:02;;;;;;;13.00;11.60;;;;;;;20.25;60.38;100502.27;105346;1263;183529;-81
2023/06/22 01:38:29;;;;;;;14.60;13.10;;;;;;;20.22;60.58;100509.40;105316;1262;59249;-82
2023/06/22 01:40:57;;;;;;;14.10;12.70;;;;;;;20.21;60.57;100506.46;105409;1257;60722;-82
2023/06/22 01:43:28;;;;;;;14.00;12.60;;;;;;;20.20;60.67;100513.91;105293;1262;63298;-82
2023/06/22 01:45:55;;;;;;;14.10;12.10;;;;;;;20.19;60.82;100512.83;105292;1256;59142;-82
2023/06/22 01:48:23;;;;;;;14.30;11.40;;;;;;;20.17;60.89;100517.16;105442;1263;64005;-82
2023/06/22 01:50:50;;;;;;;12.00;10.80;;;;;;;20.12;60.69;100520.66;105474;1257;59703;-81
2023/06/22 01:53:18;;;;;;;14.10;11.50;;;;;;;20.05;60.51;100522.77;105252;1256;59792;-82
2023/06/22 01:55:45;;;;;;;13.50;12.10;;;;;;;20.00;60.74;100525.45;105380;1257;64112;-82
2023/06/22 01:58:13;;;;;;;14.60;12.70;;;;;;;19.98;60.71;100522.98;105403;1264;59713;-82
2023/06/22 02:00:44;;;;;;;16.10;11.80;;;;;;;19.92;60.80;100523.83;105588;1257;62447;-81
2023/06/22 02:03:15;;;;;;;13.20;11.90;;;;;;;19.89;60.88;100526.73;105366;1259;59734;-82
2023/06/22 02:05:49;;;;;;;13.70;12.20;;;;;;;19.88;61.05;100526.33;105816;1258;59788;-80
2023/06/22 02:08:21;;;;;;;13.90;12.50;;;;;;;19.87;61.20;100529.41;105314;1265;64227;-81
2023/06/22 02:10:49;;;;;;;14.80;12.90;;;;;;;19.87;61.45;100523.02;105480;1257;59661;-81
2023/06/22 02:13:16;;;;;;;13.80;12.20;;;;;;;19.89;61.52;100521.04;105385;1257;63712;-81
2023/06/22 02:15:45;;;;;;;14.10;12.40;;;;;;;19.91;61.70;100515.20;105337;1257;59734;-81
2023/06/22 02:18:13;;;;;;;13.00;11.70;;;;;;;19.91;61.71;100515.92;105410;1257;59717;-81
2023/06/22 02:20:40;;;;;;;13.20;12.00;;;;;;;19.90;61.62;100515.50;105358;1257;63080;-82
2023/06/22 02:23:08;;;;;;;14.00;12.00;;;;;;;19.88;61.56;100513.97;105341;1257;59701;-82
2023/06/22 02:25:36;;;;;;;15.00;13.50;;;;;;;19.88;61.48;100518.63;105290;1260;63738;-83
2023/06/22 02:28:03;;;;;;;18.30;14.30;;;;;;;19.90;61.43;100520.94;105777;1257;59706;-82
2023/06/22 02:30:31;;;;;;;18.10;16.20;;;;;;;19.89;61.36;100522.21;105657;1253;59894;-84
2023/06/22 02:32:59;;;;;;;20.80;18.70;;;;;;;19.89;61.48;100518.83;105790;1258;64077;-84
2023/06/22 02:35:31;;;;;;;20.10;17.90;;;;;;;19.90;61.68;100516.38;109556;1251;57458;-83
2023/06/22 02:38:00;;;;;;;18.90;16.40;;;;;;;19.93;61.71;100520.33;109535;1253;62538;-82
2023/06/22 02:40:27;;;;;;;21.30;19.10;;;;;;;19.96;61.80;100516.71;109446;1253;57543;-82
2023/06/22 02:42:58;;;;;;;23.90;21.50;;;;;;;19.97;61.56;100516.64;109385;1253;58045;-82
2023/06/22 02:45:25;;;;;;;25.00;21.70;;;;;;;19.97;61.62;100525.77;109451;1251;62842;-83
2023/06/22 02:47:52;;;;;;;23.80;21.30;;;;;;;20.00;61.79;100526.28;109487;1253;58941;-83
2023/06/22 02:50:20;;;;;;;24.40;21.80;;;;;;;20.05;61.90;100523.08;109397;1253;63740;-83
2023/06/22 02:52:47;;;;;;;22.60;20.20;;;;;;;20.09;61.88;100522.99;109461;1253;57367;-82
2023/06/22 02:55:15;;;;;;;20.70;18.50;;;;;;;20.13;61.97;100523.27;109420;1251;57665;-82
2023/06/22 02:57:52;;;;;;;22.20;19.90;;;;;;;20.18;61.95;100530.37;109303;1253;64251;-82
2023/06/22 03:00:21;;;;;;;22.40;20.10;;;;;;;20.22;61.82;100529.23;109418;1252;57398;-83
2023/06/22 03:02:49;;;;;;;23.70;20.70;;;;;;;20.25;61.83;100529.58;109343;1253;62440;-82
2023/06/22 03:05:18;;;;;;;24.00;19.70;;;;;;;20.28;61.94;100529.61;109310;1253;57329;-81
2023/06/22 03:07:46;;;;;;;22.10;19.80;;;;;;;20.33;62.14;100532.77;109267;1253;57281;-82
2023/06/22 03:10:13;;;;;;;21.80;19.10;;;;;;;20.38;62.23;100535.75;109359;1253;63270;-82
2023/06/22 03:12:42;;;;;;;20.30;18.10;;;;;;;20.45;62.14;100533.58;109275;1253;58352;-82
2023/06/22 03:15:11;;;;;;;20.20;18.10;;;;;;;20.52;62.07;100532.36;109268;1253;63699;-82
2023/06/22 03:17:39;;;;;;;19.20;17.20;;;;;;;20.58;62.04;100527.71;109328;1253;57344;-82
2023/06/22 03:20:09;;;;;;;21.80;18.10;;;;;;;20.64;61.87;100527.70;109350;1253;57236;-82
2023/06/22 03:22:41;;;;;;;21.60;19.10;;;;;;;20.71;61.71;100530.14;109358;1253;64165;-82
2023/06/22 03:25:15;;;;;;;20.70;18.00;;;;;;;20.76;61.82;100528.96;109254;1253;57432;-83
2023/06/22 03:27:44;;;;;;;24.00;18.60;;;;;;;20.82;61.90;100531.08;109335;1253;63828;-84
2023/06/22 03:30:11;;;;;;;20.90;18.70;;;;;;;20.88;61.98;100530.77;109333;1253;57296;-83
2023/06/22 03:32:39;;;;;;;20.10;18.00;;;;;;;20.94;61.96;100529.23;109418;1253;57433;-84
2023/06/22 03:35:07;;;;;;;20.50;18.20;;;;;;;21.02;62.15;100528.89;109503;1253;64177;-84
2023/06/22 03:37:36;;;;;;;20.40;17.60;;;;;;;21.08;62.07;100528.40;109334;1253;57435;-84
2023/06/22 03:40:05;;;;;;;22.70;17.10;;;;;;;21.15;62.22;100527.38;109373;1253;63721;-83
2023/06/22 03:42:36;;;;;;;20.30;18.20;;;;;;;21.22;62.23;100529.64;109478;1253;57369;-84
2023/06/22 03:45:04;;;;;;;20.20;18.00;;;;;;;21.25;62.43;100534.59;109489;1253;57426;-84
2023/06/22 03:47:32;;;;;;;20.70;17.90;;;;;;;21.31;62.29;100534.43;109452;1253;62942;-84
2023/06/22 03:50:00;;;;;;;21.70;17.20;;;;;;;21.36;62.32;100539.00;109432;1253;57436;-83
2023/06/22 03:52:27;;;;;;;20.00;17.00;;;;;;;21.40;62.40;100541.73;109427;1253;63812;-83
2023/06/22 03:54:54;;;;;;;18.40;16.40;;;;;;;21.46;62.52;100545.56;109397;1253;57369;-83
2023/06/22 03:57:22;;;;;;;19.00;17.10;;;;;;;21.49;62.66;100546.75;109368;1253;57236;-84
2023/06/22 03:59:50;;;;;;;19.90;17.30;;;;;;;21.54;62.73;100549.71;109335;1253;64091;-84
2023/06/22 04:02:19;;;;;;;21.50;17.50;;;;;;;21.61;62.74;100550.70;109367;1253;58350;-84
2023/06/22 04:04:47;;;;;;;19.10;16.20;;;;;;;21.67;62.59;100546.67;109371;1253;62757;-84
2023/06/22 04:07:14;;;;;;;20.80;17.30;;;;;;;21.75;62.56;100545.92;109371;1253;57378;-84
2023/06/22 04:09:42;;;;;;;19.90;17.30;;;;;;;21.82;62.26;100547.00;109379;1253;57354;-84
2023/06/22 04:12:09;;;;;;;20.40;17.50;;;;;;;21.88;62.16;100547.43;109359;1253;64539;-84
2023/06/22 04:14:37;;;;;;;20.10;17.90;;;;;;;21.93;62.16;100548.48;109417;1253;58473;-84
2023/06/22 04:17:04;;;;;;;19.60;17.50;;;;;;;22.00;62.07;100546.12;109325;1253;63746;-83
2023/06/22 04:19:31;;;;;;;21.30;19.10;;;;;;;22.11;62.17;100551.63;109306;1253;57334;-84
2023/06/22 04:21:59;;;;;;;20.60;18.40;;;;;;;22.19;62.07;100553.65;109304;1253;57395;-82
2023/06/22 04:24:26;;;;;;;26.40;19.00;;;;;;;22.27;62.12;100557.45;109305;1253;64166;-83
2023/06/22 04:26:54;;;;;;;22.60;19.30;;;;;;;22.35;62.08;100553.74;109418;1253;58392;-83
2023/06/22 04:29:28;;;;;;;20.60;18.40;;;;;;;22.44;61.92;100551.91;109372;1253;62421;-84
2023/06/22 04:31:58;;;;;;;20.90;18.70;;;;;;;22.54;61.99;100557.45;109468;1253;57340;-84
2023/06/22 04:34:28;;;;;;;20.90;18.20;;;;;;;22.65;61.96;100554.27;109200;1253;57292;-84
2023/06/22 04:36:56;;;;;;;22.20;19.90;;;;;;;22.74;61.87;100553.42;109419;1253;64167;-84
2023/06/22 04:39:23;;;;;;;22.80;18.90;;;;;;;22.83;61.83;100552.84;109391;1253;57343;-84
2023/06/22 04:41:51;;;;;;;20.10;17.90;;;;;;;22.92;61.68;100554.36;109389;1253;62410;-83
2023/06/22 04:44:25;;;;;;;20.30;18.10;;;;;;;23.02;61.49;100551.84;109372;1253;57786;-84
2023/06/22 04:47:08;;;;;;;;;;;;;;;23.11;61.50;100551.20;109310;1253;57245;-84
2023/06/22 04:49:40;;;;;;;19.80;16.80;;;;;;;23.19;61.57;100555.48;109321;1253;62903;-84
2023/06/22 04:52:08;;;;;;;19.70;16.60;;;;;;;23.29;61.46;100559.38;109269;1253;57367;-84
2023/06/22 04:54:37;;;;;;;16.60;14.70;;;;;;;23.42;61.23;100563.45;109313;1253;63685;-83
2023/06/22 04:57:09;;;;;;;17.60;14.60;;;;;;;23.53;61.29;100570.55;109150;1255;57425;-84
2023/06/22 04:59:38;;;;;;;17.30;15.50;;;;;;;23.63;61.03;100569.30;109207;1258;57407;-85
2023/06/22 05:02:06;;;;;;;17.50;15.30;;;;;;;23.72;60.89;100569.03;109231;1260;62900;-84
2023/06/22 05:04:35;;;;;;;16.80;15.10;;;;;;;23.82;60.86;100571.85;109228;1255;57395;-84
2023/06/22 05:07:03;;;;;;;17.30;15.00;;;;;;;23.93;60.75;100576.30;109246;1255;62467;-84
2023/06/22 05:09:31;;;;;;;15.60;13.90;;;;;;;24.04;60.49;100578.33;109233;1255;57294;-85
2023/06/22 05:12:00;;;;;;;15.70;13.80;;;;;;;24.13;60.34;100576.39;109264;1255;57351;-85
2023/06/22 05:14:28;;;;;;;17.50;14.00;;;;;;;24.23;60.13;100577.94;109219;1255;64124;-85
2023/06/22 05:16:58;;;;;;;17.00;13.10;;;;;;;24.31;60.01;100576.17;109272;1255;58352;-84
2023/06/22 05:19:33;;;;;;;14.30;12.50;;;;;;;24.42;59.81;100579.55;109290;1255;62456;-84
2023/06/22 05:22:01;;;;;;;14.40;12.20;;;;;;;24.54;59.60;100575.53;109211;1255;57472;-83
2023/06/22 05:24:29;;;;;;;19.60;11.70;;;;;;;24.67;59.23;100580.84;109274;1255;57259;-85
2023/06/22 05:26:56;;;;;;;17.20;12.50;;;;;;;24.79;58.61;100582.16;109239;1255;64227;-85
2023/06/22 05:29:24;;;;;;;25.70;17.60;;;;;;;24.91;58.22;100582.30;109127;1255;57634;-85
2023/06/22 05:31:51;;;;;;;37.30;24.20;;;;;;;25.04;57.86;100581.15;109228;1255;62415;-85
2023/06/22 05:34:18;;;;;;;24.70;17.10;;;;;;;25.16;57.06;100581.29;109097;1256;58116;-84
2023/06/22 05:36:46;;;;;;;15.60;12.10;;;;;;;25.28;56.31;100587.70;109152;1255;58243;-85
2023/06/22 05:39:14;;;;;;;15.10;10.70;;;;;;;25.41;55.99;100588.62;109193;1255;64864;-84
2023/06/22 05:41:43;;;;;;;14.70;10.10;;;;;;;25.54;55.56;100590.06;109234;1254;58250;-84
2023/06/22 05:44:10;;;;;;;11.70;10.20;;;;;;;25.65;54.76;100590.05;109106;1255;64110;-85
2023/06/22 05:46:44;;;;;;;10.70;9.10;;;;;;;25.75;54.06;100589.28;109143;1254;58190;-83
2023/06/22 05:49:15;;;;;;;10.20;8.20;;;;;;;25.84;53.38;100592.65;109396;1254;58251;-83
2023/06/22 05:51:42;;;;;;;12.70;8.20;;;;;;;25.93;52.08;100591.14;109272;1256;64514;-83
2023/06/22 05:54:10;;;;;;;9.20;8.30;;;;;;;26.03;51.51;100591.21;109354;1256;58109;-84
2023/06/22 05:56:37;;;;;;;11.70;8.30;;;;;;;26.12;51.16;100596.02;109306;1256;62468;-85
2023/06/22 05:59:05;;;;;;;10.60;8.20;;;;;;;26.21;51.06;100596.80;109326;1256;58068;-86
2023/06/22 06:01:35;;;;;;;9.60;8.60;;;;;;;26.29;50.66;100596.88;109130;1255;58544;-86
2023/06/22 06:04:03;;;;;;;10.30;8.10;;;;;;;26.36;50.02;100596.25;109179;1261;63915;-83
2023/06/22 06:06:31;;;;;;;9.40;8.20;;;;;;;26.42;49.25;100595.27;109291;1255;58198;-85
2023/06/22 06:08:59;;;;;;;8.60;7.80;;;;;;;26.52;48.55;100597.48;109296;1256;62578;-85
2023/06/22 06:11:27;;;;;;;9.30;7.70;;;;;;;26.58;48.17;100594.55;109275;1255;58118;-86
2023/06/22 06:13:57;;;;;;;12.90;7.40;;;;;;;26.64;47.68;100597.08;109188;1256;58025;-86
2023/06/22 06:16:24;;;;;;;12.40;7.90;;;;;;;26.75;47.35;100600.20;109266;1256;66218;-86
2023/06/22 06:18:53;;;;;;;9.30;7.80;;;;;;;26.83;47.36;100597.79;109191;1256;58227;-85
2023/06/22 06:21:21;;;;;;;9.30;7.50;;;;;;;26.95;46.62;100596.17;109256;1256;62432;-83
2023/06/22 06:23:48;;;;;;;9.70;7.60;;;;;;;27.05;46.09;100600.93;109132;1258;58157;-82
2023/06/22 06:26:27;;;;;;;7.90;7.10;;;;;;;27.14;45.96;100603.89;109138;1256;58057;-84
2023/06/22 06:29:00;;;;;;;9.70;7.90;;;;;;;27.23;45.91;100604.05;109129;1255;63726;-82
2023/06/22 06:31:28;;;;;;;10.10;7.20;;;;;;;27.33;45.81;100603.05;109291;1255;58210;-83
2023/06/22 06:33:56;;;;;;;7.20;6.20;;;;;;;27.42;44.61;100599.13;109149;1256;62903;-85
2023/06/22 06:36:23;;;;;;;10.80;6.60;;;;;;;27.42;43.23;100598.14;109214;1256;58152;-82
2023/06/22 06:38:51;;;;;;;11.50;6.70;;;;;;;27.51;43.11;100600.67;109381;1255;58077;-82
2023/06/22 06:41:19;;;;;;;8.50;7.20;;;;;;;27.57;42.80;100601.67;109129;1261;66824;-82
2023/06/22 06:43:47;;;;;;;11.80;7.20;;;;;;;27.62;42.69;100601.29;109198;1256;58103;-74
2023/06/22 06:46:15;;;;;;;13.60;7.70;;;;;;;27.59;43.19;100597.27;109130;1256;66132;-78
2023/06/22 06:48:42;;;;;;;8.50;7.30;;;;;;;27.67;43.63;100595.94;109211;1256;58114;-82
2023/06/22 06:51:10;;;;;;;10.50;7.00;;;;;;;27.78;43.45;100590.58;109229;1256;58199;-80
2023/06/22 06:53:38;;;;;;;16.70;7.40;;;;;;;27.88;43.34;100590.15;109220;1256;64977;-79
2023/06/22 06:56:05;;;;;;;8.20;7.00;;;;;;;28.03;42.67;100588.10;109109;1256;58175;-79
2023/06/22 06:58:33;;;;;;;11.60;7.00;;;;;;;28.13;42.15;100588.67;109067;1256;63896;-75
2023/06/22 07:01:01;;;;;;;8.00;7.10;;;;;;;28.19;41.79;100584.81;109104;1255;58230;-80
2023/06/22 07:03:29;;;;;;;9.50;7.30;;;;;;;28.25;41.93;100582.41;109090;1256;58219;-82
2023/06/22 07:05:56;;;;;;;8.20;7.20;;;;;;;28.31;41.97;100579.77;109085;1256;65050;-77
2023/06/22 07:08:23;;;;;;;9.70;8.50;;;;;;;28.43;41.57;100578.45;109087;1255;66202;-77
2023/06/22 07:10:52;;;;;;;14.10;7.80;;;;;;;28.48;41.66;100573.63;109213;1256;63758;-74
2023/06/22 07:13:19;;;;;;;52.80;9.00;;;;;;;28.56;41.62;100569.57;109026;1259;58147;-78
2023/06/22 07:15:48;;;;;;;14.40;7.20;;;;;;;28.70;41.50;100571.91;109192;1256;58088;-76
2023/06/22 07:18:15;;;;;;;9.60;6.70;;;;;;;28.83;41.27;100573.02;109154;1256;75781;-76
2023/06/22 07:20:43;;;;;;;13.80;6.80;;;;;;;28.92;40.53;100575.86;109117;1256;58568;-76
2023/06/22 07:23:11;;;;;;;10.80;7.90;;;;;;;29.04;40.13;100574.88;109091;1257;64963;-81
2023/06/22 07:25:39;;;;;;;9.50;8.20;;;;;;;29.10;40.00;100579.16;109072;1258;58142;-78
2023/06/22 07:28:06;;;;;;;18.20;7.80;;;;;;;29.17;39.94;100577.23;109063;1259;58045;-80
2023/06/22 07:30:34;;;;;;;20.40;8.00;;;;;;;29.22;40.40;100574.36;109062;1257;63777;-80
2023/06/22 07:33:03;;;;;;;41.00;7.90;;;;;;;29.33;40.55;100569.80;109061;1257;58307;-81
2023/06/22 07:35:31;;;;;;;10.10;8.30;;;;;;;29.50;40.36;100570.88;109050;1262;62432;-76
2023/06/22 07:37:59;;;;;;;40.50;8.80;;;;;;;29.57;39.97;100569.11;109026;1257;58188;-81
2023/06/22 07:40:32;;;;;;;8.50;7.20;;;;;;;29.58;39.86;100568.70;109088;1257;58179;-76
2023/06/22 07:43:00;;;;;;;12.90;8.10;;;;;;;29.65;39.02;100572.92;109067;1257;64290;-75
2023/06/22 07:45:27;;;;;;;8.70;7.80;;;;;;;29.60;38.42;100571.63;109057;1257;58213;-75
2023/06/22 07:47:55;;;;;;;27.30;8.70;;;;;;;29.63;38.80;100569.52;109050;1257;63796;-76
2023/06/22 07:50:22;;;;;;;11.90;7.20;;;;;;;29.74;39.13;100565.97;109078;1257;58095;-76
2023/06/22 07:52:52;;;;;;;12.40;7.60;;;;;;;29.88;39.00;100563.89;109118;1257;58525;-75
2023/06/22 07:55:20;;;;;;;10.30;7.40;;;;;;;30.07;38.34;100565.16;109066;1257;63675;-74
2023/06/22 07:57:49;;;;;;;9.30;6.90;;;;;;;30.12;38.14;100557.93;109058;1258;58240;-76
2023/06/22 08:00:18;;;;;;;12.00;7.90;;;;;;;30.23;38.15;100558.24;109089;1259;63821;-76
2023/06/22 08:02:45;;;;;;;13.80;9.00;;;;;;;30.39;40.19;100562.38;109027;1259;58093;-76
2023/06/22 08:05:14;;;;;;;15.10;7.70;;;;;;;30.49;42.18;100560.11;109053;1259;58015;-74
2023/06/22 08:07:49;;;;;;;12.20;8.60;;;;;;;30.64;41.98;100555.67;109053;1258;63664;-71
2023/06/22 08:10:17;;;;;;;9.00;7.10;;;;;;;30.74;42.92;100559.15;108994;1258;58241;-73
2023/06/22 08:12:44;;;;;;;9.90;7.20;;;;;;;30.82;41.62;100557.48;109027;1259;63841;-78
2023/06/22 08:15:13;;;;;;;19.50;7.90;;;;;;;30.98;40.67;100558.34;109006;1258;58200;-76
2023/06/22 08:17:42;;;;;;;14.30;8.30;;;;;;;31.09;41.79;100561.98;109092;1259;58347;-73
2023/06/22 08:20:13;;;;;;;12.80;8.90;;;;;;;31.16;43.04;100559.77;109009;1259;63679;-78
2023/06/22 08:22:42;;;;;;;11.80;9.10;;;;;;;31.25;43.67;100561.47;109043;1256;59990;-81
2023/06/22 08:25:10;;;;;;;12.10;8.90;;;;;;;31.31;43.45;100562.85;109096;1256;63755;-75
2023/06/22 08:27:38;;;;;;;15.30;9.10;;;;;;;31.35;43.81;100565.08;109103;1256;58132;-76
2023/06/22 08:30:07;;;;;;;15.10;9.00;;;;;;;31.45;43.89;100570.44;109121;1256;61007;-78
2023/06/22 08:32:36;;;;;;;11.20;8.50;;;;;;;31.53;44.05;100570.10;109057;1256;65143;-77
2023/06/22 08:35:08;;;;;;;13.80;9.60;;;;;;;31.65;44.26;100569.73;109137;1256;58216;-76
2023/06/22 08:37:38;;;;;;;12.30;9.20;;;;;;;31.75;43.75;100573.92;109099;1256;62789;-75
2023/06/22 08:40:09;;;;;;;12.70;9.50;;;;;;;31.78;43.52;100576.86;109124;1259;58192;-78
2023/06/22 08:42:37;;;;;;;11.80;9.60;;;;;;;31.76;43.45;100576.13;109156;1261;58166;-78
2023/06/22 08:45:06;;;;;;;11.80;9.10;;;;;;;31.79;43.38;100576.65;109124;1256;63800;-78
2023/06/22 08:47:33;;;;;;;12.80;9.20;;;;;;;31.85;43.26;100576.11;109077;1256;58255;-77
2023/06/22 08:50:03;;;;;;;9.80;8.80;;;;;;;31.88;43.32;100581.16;109040;1256;65002;-77
2023/06/22 08:52:31;;;;;;;12.00;8.60;;;;;;;31.99;42.95;100584.61;109096;1256;58198;-78
2023/06/22 08:54:58;;;;;;;12.60;9.10;;;;;;;32.10;42.59;100582.35;109116;1256;58053;-77
2023/06/22 08:57:28;;;;;;;8.90;8.00;;;;;;;32.10;42.33;100576.29;109042;1259;64953;-78
2023/06/22 08:59:59;;;;;;;9.30;8.40;;;;;;;32.05;42.62;100575.05;109047;1257;58241;-77
2023/06/22 09:02:31;;;;;;;11.50;8.30;;;;;;;32.05;42.37;100577.02;109050;1257;75053;-78
2023/06/22 09:05:04;;;;;;;10.60;8.10;;;;;;;32.02;42.26;100583.20;109007;1257;58210;-78
2023/06/22 09:07:35;;;;;;;10.70;8.40;;;;;;;31.91;42.18;100592.55;109113;1258;58199;-77
2023/06/22 09:10:06;;;;;;;11.60;8.40;;;;;;;31.73;42.27;100595.13;109034;1257;63710;-79
2023/06/22 09:12:40;;;;;;;12.00;8.50;;;;;;;31.53;42.29;100594.84;109106;1257;58173;-79
2023/06/22 09:15:13;;;;;;;11.00;8.00;;;;;;;31.33;42.37;100591.15;109076;1257;63738;-82
2023/06/22 09:17:47;;;;;;;9.40;8.10;;;;;;;31.07;43.03;100585.53;109002;1259;60216;-79
2023/06/22 09:20:17;;;;;;;12.70;8.10;;;;;;;30.96;43.39;100584.83;109101;1257;58179;-80
2023/06/22 09:22:47;;;;;;;10.00;7.90;;;;;;;30.84;43.68;100585.73;109027;1257;64928;-80
2023/06/22 09:25:20;;;;;;;10.50;8.30;;;;;;;30.72;43.92;100588.20;109095;1257;59591;-80
2023/06/22 09:27:50;;;;;;;12.20;8.50;;;;;;;30.63;43.71;100588.90;109021;1257;63944;-79
2023/06/22 09:30:21;;;;;;;13.90;7.90;;;;;;;30.60;44.14;100588.52;108897;1258;58122;-80
2023/06/22 09:32:52;;;;;;;13.10;8.20;;;;;;;30.57;44.32;100588.58;108934;1257;58035;-79
2023/06/22 09:35:24;;;;;;;12.50;8.10;;;;;;;30.56;44.48;100585.67;108909;1256;64963;-80
2023/06/22 09:37:55;;;;;;;9.40;7.30;;;;;;;30.58;44.59;100581.55;108937;1258;58479;-82
2023/06/22 09:40:26;;;;;;;9.00;7.40;;;;;;;30.57;44.41;100578.00;108911;1258;62486;-80
2023/06/22 09:42:57;;;;;;;11.40;7.80;;;;;;;30.55;44.43;100578.73;108938;1259;58389;-82
2023/06/22 09:45:28;;;;;;;16.10;7.70;;;;;;;30.52;44.36;100579.29;109068;1258;57988;-80
2023/06/22 09:48:00;;;;;;;42.20;9.90;;;;;;;30.52;44.09;100572.52;109061;1257;64994;-82
2023/06/22 09:50:33;;;;;;;12.70;7.90;;;;;;;30.49;44.14;100568.84;109152;1257;60422;-81
2023/06/22 09:53:04;;;;;;;13.00;8.10;;;;;;;30.64;44.07;100565.09;109060;1257;74204;-85
2023/06/22 09:55:35;;;;;;;14.50;7.90;;;;;;;30.89;44.55;100563.08;109053;1257;61477;-80
2023/06/22 10:04:40;;;;;;;14.80;7.50;;;;;;;32.00;41.11;100543.52;102795;1292;607907;-78
2023/06/22 10:07:08;;;;;;;136.50;12.80;;;;;;;32.21;40.97;100544.30;105311;1267;59236;-78
2023/06/22 10:09:35;;;;;;;13.30;7.60;;;;;;;32.42;40.36;100546.73;105241;1268;59149;-77
2023/06/22 10:12:02;;;;;;;11.80;7.10;;;;;;;32.66;39.65;100545.20;105197;1271;63985;-79
2023/06/22 10:14:29;;;;;;;7.90;7.00;;;;;;;32.90;39.23;100550.95;105151;1271;60093;-81
2023/06/22 10:16:57;;;;;;;13.50;6.70;;;;;;;33.08;38.30;100559.43;104906;1264;212022;-78
2023/06/22 10:19:26;;;;;;;9.40;7.30;;;;;;;33.16;37.42;100561.27;106338;1267;59255;-77
2023/06/22 10:21:55;;;;;;;9.00;6.50;;;;;;;33.25;36.64;100557.75;107563;1263;59163;-78
2023/06/22 10:24:44;;;;;;;16.60;7.30;;;;;;;33.38;36.55;100556.63;106263;1263;62240;-77
2023/06/22 10:27:11;;;;;;;10.40;7.00;;;;;;;33.42;36.44;100554.41;106030;1257;59317;-82
2023/06/22 10:29:39;;;;;;;11.00;7.50;;;;;;;33.44;35.57;100558.14;105822;1258;66036;-80
2023/06/22 10:32:06;;;;;;;13.20;7.70;;;;;;;33.35;33.71;100566.84;105759;1257;59717;-86
2023/06/22 10:34:33;;;;;;;9.50;6.60;;;;;;;33.14;33.20;100594.38;105516;1260;60004;-76
2023/06/22 10:37:00;;;;;;;11.20;6.60;;;;;;;32.69;33.60;100601.52;105689;1260;64391;-76
2023/06/22 10:39:27;;;;;;;11.30;6.60;;;;;;;31.87;34.99;100600.84;105333;1264;59778;-75
2023/06/22 10:41:56;;;;;;;8.90;6.20;;;;;;;31.17;36.15;100599.70;105499;1257;63754;-77
2023/06/22 10:44:22;;;;;;;10.10;5.90;;;;;;;30.73;37.47;100604.38;105524;1263;59605;-78
2023/06/22 10:46:49;;;;;;;8.50;5.70;;;;;;;30.36;36.75;100617.00;105464;1256;59527;-77
2023/06/22 10:49:16;;;;;;;7.90;5.30;;;;;;;29.82;35.67;100619.70;105641;1256;64393;-75
2023/06/22 10:51:43;;;;;;;9.00;5.50;;;;;;;29.33;36.08;100631.60;105673;1261;59637;-74
2023/06/22 10:54:13;;;;;;;8.30;5.60;;;;;;;28.91;36.82;100633.26;105660;1257;64991;-76
2023/06/22 10:56:40;;;;;;;8.40;6.00;;;;;;;28.61;37.38;100636.55;105935;1256;59743;-76
2023/06/22 10:59:07;;;;;;;8.40;6.10;;;;;;;28.30;38.12;100629.86;105799;1256;59638;-73
2023/06/22 11:01:34;;;;;;;8.20;6.40;;;;;;;28.05;38.88;100631.05;105664;1260;64400;-76
2023/06/22 11:04:03;;;;;;;8.60;7.30;;;;;;;27.91;39.68;100624.14;105498;1257;59501;-76
2023/06/22 11:06:31;;;;;;;13.20;8.20;;;;;;;27.74;40.40;100617.07;105557;1256;62789;-81
2023/06/22 11:08:58;;;;;;;12.60;8.60;;;;;;;27.60;41.00;100616.41;105588;1257;59767;-73
2023/06/22 11:11:38;;;;;;;11.70;7.70;;;;;;;27.52;41.45;100618.52;105494;1257;59600;-72
2023/06/22 11:14:05;;;;;;;11.50;8.00;;;;;;;27.52;41.00;100614.02;105463;1260;66339;-72
2023/06/22 11:16:34;;;;;;;10.90;7.30;;;;;;;27.50;41.16;100608.40;105938;1259;59634;-72
2023/06/22 11:19:01;;;;;;;8.40;6.90;;;;;;;27.54;41.00;100606.73;105458;1260;63694;-73
2023/06/22 11:21:28;;;;;;;7.60;6.80;;;;;;;27.59;41.47;100606.48;105641;1259;59721;-75
2023/06/22 11:23:54;;;;;;;14.40;7.10;;;;;;;27.63;41.80;100601.19;105513;1256;59733;-74
2023/06/22 11:26:21;;;;;;;11.00;6.90;;;;;;;27.75;41.59;100601.61;105566;1259;64748;-71
2023/06/22 11:28:48;;;;;;;14.90;6.80;;;;;;;27.85;40.94;100601.34;105633;1259;66347;-73